sensor_id;sensor_type;location;lat;lon;timestamp;P1;durP1;ratioP1;P2;durP2;ratioP2
36551;SDS011;22559;54.176;12.102;2023-02-17T00:01:08;37.37;;;20.87;;
36551;SDS011;22559;54.176;12.102;2023-02-17T00:03:38;36.10;;;21.27;;
36551;SDS011;22559;54.176;12.102;2023-02-17T00:06:05;42.20;;;23.73;;
36551;SDS011;22559;54.176;12.102;2023-02-17T00:08:31;42.37;;;24.07;;
36551;SDS011;22559;54.176;12.102;2023-02-17T00:10:57;45.83;;;25.57;;
36551;SDS011;22559;54.176;12.102;2023-02-17T00:13:23;47.13;;;27.00;;
36551;SDS011;22559;54.176;12.102;2023-02-17T00:15:49;47.57;;;27.93;;
36551;SDS011;22559;54.176;12.102;2023-02-17T00:18:15;50.17;;;27.60;;
36551;SDS011;22559;54.176;12.102;2023-02-17T00:20:40;49.20;;;28.03;;
36551;SDS011;22559;54.176;12.102;2023-02-17T00:23:06;53.63;;;28.83;;
36551;SDS011;22559;54.176;12.102;2023-02-17T00:25:32;54.30;;;29.67;;
36551;SDS011;22559;54.176;12.102;2023-02-17T00:27:57;56.60;;;30.67;;
36551;SDS011;22559;54.176;12.102;2023-02-17T00:30:23;56.03;;;29.87;;
36551;SDS011;22559;54.176;12.102;2023-02-17T00:32:48;58.93;;;31.57;;
36551;SDS011;22559;54.176;12.102;2023-02-17T00:35:14;59.07;;;32.23;;
36551;SDS011;22559;54.176;12.102;2023-02-17T00:37:40;60.10;;;32.77;;
36551;SDS011;22559;54.176;12.102;2023-02-17T00:40:09;58.50;;;33.43;;
36551;SDS011;22559;54.176;12.102;2023-02-17T00:42:36;65.37;;;34.97;;
36551;SDS011;22559;54.176;12.102;2023-02-17T00:45:02;58.57;;;32.87;;
36551;SDS011;22559;54.176;12.102;2023-02-17T00:47:28;62.93;;;34.40;;
36551;SDS011;22559;54.176;12.102;2023-02-17T00:49:53;65.80;;;35.77;;
36551;SDS011;22559;54.176;12.102;2023-02-17T00:52:19;65.23;;;35.33;;
36551;SDS011;22559;54.176;12.102;2023-02-17T00:54:44;65.23;;;34.23;;
36551;SDS011;22559;54.176;12.102;2023-02-17T00:57:10;67.33;;;36.33;;
36551;SDS011;22559;54.176;12.102;2023-02-17T00:59:36;63.87;;;35.33;;
36551;SDS011;22559;54.176;12.102;2023-02-17T01:02:01;61.80;;;35.47;;
36551;SDS011;22559;54.176;12.102;2023-02-17T01:04:27;73.60;;;36.73;;
36551;SDS011;22559;54.176;12.102;2023-02-17T01:06:53;64.43;;;35.10;;
36551;SDS011;22559;54.176;12.102;2023-02-17T01:09:18;70.80;;;38.50;;
36551;SDS011;22559;54.176;12.102;2023-02-17T01:11:44;72.33;;;38.20;;
36551;SDS011;22559;54.176;12.102;2023-02-17T01:14:11;71.87;;;38.03;;
36551;SDS011;22559;54.176;12.102;2023-02-17T01:16:38;75.47;;;39.37;;
36551;SDS011;22559;54.176;12.102;2023-02-17T01:19:06;70.33;;;36.63;;
36551;SDS011;22559;54.176;12.102;2023-02-17T01:21:34;69.37;;;38.30;;
36551;SDS011;22559;54.176;12.102;2023-02-17T01:24:01;77.60;;;38.47;;
36551;SDS011;22559;54.176;12.102;2023-02-17T01:26:29;72.03;;;39.37;;
36551;SDS011;22559;54.176;12.102;2023-02-17T01:28:56;73.67;;;38.57;;
36551;SDS011;22559;54.176;12.102;2023-02-17T01:31:22;74.23;;;40.17;;
36551;SDS011;22559;54.176;12.102;2023-02-17T01:33:51;80.50;;;40.83;;
36551;SDS011;22559;54.176;12.102;2023-02-17T01:36:18;84.20;;;40.87;;
36551;SDS011;22559;54.176;12.102;2023-02-17T01:38:44;79.70;;;41.03;;
36551;SDS011;22559;54.176;12.102;2023-02-17T01:41:11;75.83;;;40.43;;
36551;SDS011;22559;54.176;12.102;2023-02-17T01:43:37;71.33;;;39.20;;
36551;SDS011;22559;54.176;12.102;2023-02-17T01:46:03;80.77;;;38.77;;
36551;SDS011;22559;54.176;12.102;2023-02-17T01:48:43;78.57;;;38.47;;
36551;SDS011;22559;54.176;12.102;2023-02-17T01:51:17;78.57;;;41.30;;
36551;SDS011;22559;54.176;12.102;2023-02-17T01:53:57;75.37;;;39.60;;
36551;SDS011;22559;54.176;12.102;2023-02-17T01:56:30;75.93;;;38.87;;
36551;SDS011;22559;54.176;12.102;2023-02-17T01:59:00;68.40;;;38.50;;
36551;SDS011;22559;54.176;12.102;2023-02-17T02:01:31;76.97;;;38.67;;
36551;SDS011;22559;54.176;12.102;2023-02-17T02:03:58;69.33;;;38.10;;
36551;SDS011;22559;54.176;12.102;2023-02-17T02:06:27;82.87;;;40.67;;
36551;SDS011;22559;54.176;12.102;2023-02-17T02:09:02;74.93;;;37.70;;
36551;SDS011;22559;54.176;12.102;2023-02-17T02:11:33;78.50;;;39.77;;
36551;SDS011;22559;54.176;12.102;2023-02-17T02:13:59;81.67;;;41.23;;
36551;SDS011;22559;54.176;12.102;2023-02-17T02:19:17;66.13;;;37.00;;
36551;SDS011;22559;54.176;12.102;2023-02-17T02:28:08;74.70;;;38.63;;
36551;SDS011;22559;54.176;12.102;2023-02-17T02:36:18;78.63;;;40.90;;
36551;SDS011;22559;54.176;12.102;2023-02-17T02:41:33;70.07;;;38.60;;
36551;SDS011;22559;54.176;12.102;2023-02-17T02:44:08;68.17;;;37.00;;
36551;SDS011;22559;54.176;12.102;2023-02-17T02:46:37;78.20;;;39.67;;
36551;SDS011;22559;54.176;12.102;2023-02-17T02:49:03;75.97;;;38.63;;
36551;SDS011;22559;54.176;12.102;2023-02-17T02:57:10;72.33;;;37.13;;
36551;SDS011;22559;54.176;12.102;2023-02-17T02:59:59;74.33;;;37.27;;
36551;SDS011;22559;54.176;12.102;2023-02-17T03:02:32;74.63;;;39.03;;
36551;SDS011;22559;54.176;12.102;2023-02-17T03:08:29;69.97;;;35.90;;
36551;SDS011;22559;54.176;12.102;2023-02-17T03:10:59;72.10;;;37.83;;
36551;SDS011;22559;54.176;12.102;2023-02-17T03:13:25;73.90;;;37.77;;
36551;SDS011;22559;54.176;12.102;2023-02-17T03:15:51;72.17;;;39.37;;
36551;SDS011;22559;54.176;12.102;2023-02-17T03:18:17;71.43;;;37.10;;
36551;SDS011;22559;54.176;12.102;2023-02-17T03:20:53;69.17;;;37.77;;
36551;SDS011;22559;54.176;12.102;2023-02-17T03:23:21;69.90;;;36.27;;
36551;SDS011;22559;54.176;12.102;2023-02-17T03:25:46;69.33;;;36.80;;
36551;SDS011;22559;54.176;12.102;2023-02-17T03:28:13;71.93;;;37.03;;
36551;SDS011;22559;54.176;12.102;2023-02-17T03:30:39;72.47;;;37.07;;
36551;SDS011;22559;54.176;12.102;2023-02-17T03:33:05;66.03;;;35.63;;
36551;SDS011;22559;54.176;12.102;2023-02-17T03:35:32;63.60;;;35.23;;
36551;SDS011;22559;54.176;12.102;2023-02-17T03:37:58;65.23;;;34.27;;
36551;SDS011;22559;54.176;12.102;2023-02-17T03:40:24;63.23;;;33.83;;
36551;SDS011;22559;54.176;12.102;2023-02-17T03:42:50;62.90;;;34.47;;
36551;SDS011;22559;54.176;12.102;2023-02-17T03:45:15;66.47;;;34.87;;
36551;SDS011;22559;54.176;12.102;2023-02-17T03:47:41;54.10;;;31.70;;
36551;SDS011;22559;54.176;12.102;2023-02-17T03:50:07;58.20;;;32.90;;
36551;SDS011;22559;54.176;12.102;2023-02-17T03:52:33;51.30;;;31.10;;
36551;SDS011;22559;54.176;12.102;2023-02-17T03:54:58;48.17;;;29.97;;
36551;SDS011;22559;54.176;12.102;2023-02-17T03:57:24;54.07;;;30.87;;
36551;SDS011;22559;54.176;12.102;2023-02-17T03:59:50;53.63;;;30.97;;
36551;SDS011;22559;54.176;12.102;2023-02-17T04:02:15;49.17;;;29.67;;
36551;SDS011;22559;54.176;12.102;2023-02-17T04:04:41;50.90;;;29.43;;
36551;SDS011;22559;54.176;12.102;2023-02-17T04:07:06;51.37;;;29.10;;
36551;SDS011;22559;54.176;12.102;2023-02-17T04:09:32;49.60;;;28.53;;
36551;SDS011;22559;54.176;12.102;2023-02-17T04:11:58;45.20;;;27.63;;
36551;SDS011;22559;54.176;12.102;2023-02-17T04:14:23;45.60;;;27.97;;
36551;SDS011;22559;54.176;12.102;2023-02-17T04:16:49;48.83;;;28.47;;
36551;SDS011;22559;54.176;12.102;2023-02-17T04:19:14;44.70;;;27.67;;
36551;SDS011;22559;54.176;12.102;2023-02-17T04:21:40;42.47;;;26.60;;
36551;SDS011;22559;54.176;12.102;2023-02-17T04:24:06;47.03;;;26.80;;
36551;SDS011;22559;54.176;12.102;2023-02-17T04:26:31;40.47;;;25.63;;
36551;SDS011;22559;54.176;12.102;2023-02-17T04:28:57;40.63;;;26.27;;
36551;SDS011;22559;54.176;12.102;2023-02-17T04:31:22;41.83;;;25.27;;
36551;SDS011;22559;54.176;12.102;2023-02-17T04:33:49;37.47;;;25.03;;
36551;SDS011;22559;54.176;12.102;2023-02-17T04:36:15;38.50;;;24.70;;
36551;SDS011;22559;54.176;12.102;2023-02-17T04:38:41;37.97;;;25.47;;
36551;SDS011;22559;54.176;12.102;2023-02-17T04:41:06;37.30;;;23.47;;
36551;SDS011;22559;54.176;12.102;2023-02-17T04:43:32;33.17;;;22.67;;
36551;SDS011;22559;54.176;12.102;2023-02-17T04:45:58;35.67;;;22.77;;
36551;SDS011;22559;54.176;12.102;2023-02-17T04:48:24;36.83;;;23.43;;
36551;SDS011;22559;54.176;12.102;2023-02-17T04:50:50;33.90;;;21.47;;
36551;SDS011;22559;54.176;12.102;2023-02-17T04:53:15;35.13;;;22.07;;
36551;SDS011;22559;54.176;12.102;2023-02-17T04:55:41;35.53;;;22.87;;
36551;SDS011;22559;54.176;12.102;2023-02-17T04:58:08;32.43;;;21.03;;
36551;SDS011;22559;54.176;12.102;2023-02-17T05:00:34;28.70;;;21.23;;
36551;SDS011;22559;54.176;12.102;2023-02-17T05:03:00;29.47;;;20.30;;
36551;SDS011;22559;54.176;12.102;2023-02-17T05:05:26;30.07;;;20.03;;
36551;SDS011;22559;54.176;12.102;2023-02-17T05:07:52;30.17;;;20.27;;
36551;SDS011;22559;54.176;12.102;2023-02-17T05:10:18;30.57;;;20.87;;
36551;SDS011;22559;54.176;12.102;2023-02-17T05:12:44;29.50;;;19.77;;
36551;SDS011;22559;54.176;12.102;2023-02-17T05:15:10;31.03;;;19.73;;
36551;SDS011;22559;54.176;12.102;2023-02-17T05:17:36;28.27;;;19.63;;
36551;SDS011;22559;54.176;12.102;2023-02-17T05:20:02;30.90;;;20.00;;
36551;SDS011;22559;54.176;12.102;2023-02-17T05:22:29;30.60;;;19.83;;
36551;SDS011;22559;54.176;12.102;2023-02-17T05:24:54;28.27;;;20.07;;
36551;SDS011;22559;54.176;12.102;2023-02-17T05:27:20;26.97;;;19.80;;
36551;SDS011;22559;54.176;12.102;2023-02-17T05:29:45;28.60;;;19.27;;
36551;SDS011;22559;54.176;12.102;2023-02-17T05:32:11;28.80;;;18.87;;
36551;SDS011;22559;54.176;12.102;2023-02-17T05:34:37;29.90;;;19.50;;
36551;SDS011;22559;54.176;12.102;2023-02-17T05:37:03;25.47;;;18.47;;
36551;SDS011;22559;54.176;12.102;2023-02-17T05:39:29;25.70;;;17.97;;
36551;SDS011;22559;54.176;12.102;2023-02-17T05:41:54;28.33;;;19.23;;
36551;SDS011;22559;54.176;12.102;2023-02-17T05:44:20;28.10;;;18.87;;
36551;SDS011;22559;54.176;12.102;2023-02-17T05:46:46;29.47;;;19.60;;
36551;SDS011;22559;54.176;12.102;2023-02-17T05:49:11;28.87;;;19.73;;
36551;SDS011;22559;54.176;12.102;2023-02-17T05:51:37;29.67;;;21.00;;
36551;SDS011;22559;54.176;12.102;2023-02-17T05:54:02;34.13;;;21.37;;
36551;SDS011;22559;54.176;12.102;2023-02-17T05:56:28;29.63;;;20.13;;
36551;SDS011;22559;54.176;12.102;2023-02-17T05:58:54;32.33;;;20.90;;
36551;SDS011;22559;54.176;12.102;2023-02-17T06:01:20;30.87;;;20.10;;
36551;SDS011;22559;54.176;12.102;2023-02-17T06:03:45;30.90;;;19.57;;
36551;SDS011;22559;54.176;12.102;2023-02-17T06:06:11;29.00;;;18.87;;
36551;SDS011;22559;54.176;12.102;2023-02-17T06:08:37;30.40;;;21.17;;
36551;SDS011;22559;54.176;12.102;2023-02-17T06:11:03;28.23;;;18.77;;
36551;SDS011;22559;54.176;12.102;2023-02-17T06:13:29;30.80;;;20.70;;
36551;SDS011;22559;54.176;12.102;2023-02-17T06:15:54;27.70;;;19.00;;
36551;SDS011;22559;54.176;12.102;2023-02-17T06:18:20;26.67;;;18.90;;
36551;SDS011;22559;54.176;12.102;2023-02-17T06:20:46;26.03;;;18.50;;
36551;SDS011;22559;54.176;12.102;2023-02-17T06:23:11;26.83;;;19.20;;
36551;SDS011;22559;54.176;12.102;2023-02-17T06:25:37;29.23;;;19.03;;
36551;SDS011;22559;54.176;12.102;2023-02-17T06:28:03;29.23;;;18.23;;
36551;SDS011;22559;54.176;12.102;2023-02-17T06:30:29;29.70;;;20.07;;
36551;SDS011;22559;54.176;12.102;2023-02-17T06:32:54;30.47;;;19.67;;
36551;SDS011;22559;54.176;12.102;2023-02-17T06:35:20;32.40;;;19.80;;
36551;SDS011;22559;54.176;12.102;2023-02-17T06:37:46;31.63;;;19.93;;
36551;SDS011;22559;54.176;12.102;2023-02-17T06:40:11;34.37;;;20.40;;
36551;SDS011;22559;54.176;12.102;2023-02-17T06:42:37;33.30;;;20.60;;
36551;SDS011;22559;54.176;12.102;2023-02-17T06:45:03;31.97;;;21.00;;
36551;SDS011;22559;54.176;12.102;2023-02-17T06:47:30;33.53;;;21.03;;
36551;SDS011;22559;54.176;12.102;2023-02-17T06:49:59;35.23;;;21.73;;
36551;SDS011;22559;54.176;12.102;2023-02-17T06:52:25;34.97;;;21.17;;
36551;SDS011;22559;54.176;12.102;2023-02-17T06:54:51;35.53;;;21.67;;
36551;SDS011;22559;54.176;12.102;2023-02-17T06:57:16;35.13;;;21.40;;
36551;SDS011;22559;54.176;12.102;2023-02-17T06:59:42;33.70;;;22.13;;
36551;SDS011;22559;54.176;12.102;2023-02-17T07:02:12;34.90;;;21.77;;
36551;SDS011;22559;54.176;12.102;2023-02-17T07:04:41;37.70;;;23.60;;
36551;SDS011;22559;54.176;12.102;2023-02-17T07:07:07;39.50;;;22.37;;
36551;SDS011;22559;54.176;12.102;2023-02-17T07:09:34;39.07;;;23.57;;
36551;SDS011;22559;54.176;12.102;2023-02-17T07:12:00;36.70;;;22.80;;
36551;SDS011;22559;54.176;12.102;2023-02-17T07:14:26;38.07;;;22.30;;
36551;SDS011;22559;54.176;12.102;2023-02-17T07:16:52;39.40;;;22.90;;
36551;SDS011;22559;54.176;12.102;2023-02-17T07:19:18;35.47;;;21.57;;
36551;SDS011;22559;54.176;12.102;2023-02-17T07:21:44;37.57;;;21.80;;
36551;SDS011;22559;54.176;12.102;2023-02-17T07:24:10;35.47;;;21.53;;
36551;SDS011;22559;54.176;12.102;2023-02-17T07:26:36;41.03;;;23.37;;
36551;SDS011;22559;54.176;12.102;2023-02-17T07:29:03;36.60;;;21.67;;
36551;SDS011;22559;54.176;12.102;2023-02-17T07:31:30;36.77;;;21.77;;
36551;SDS011;22559;54.176;12.102;2023-02-17T07:33:57;38.87;;;22.77;;
36551;SDS011;22559;54.176;12.102;2023-02-17T07:36:23;36.43;;;22.30;;
36551;SDS011;22559;54.176;12.102;2023-02-17T07:38:48;36.07;;;20.33;;
36551;SDS011;22559;54.176;12.102;2023-02-17T07:41:15;32.43;;;20.67;;
36551;SDS011;22559;54.176;12.102;2023-02-17T07:43:43;35.03;;;20.83;;
36551;SDS011;22559;54.176;12.102;2023-02-17T07:46:09;31.30;;;20.13;;
36551;SDS011;22559;54.176;12.102;2023-02-17T07:48:36;37.33;;;22.10;;
36551;SDS011;22559;54.176;12.102;2023-02-17T07:51:03;29.60;;;18.77;;
36551;SDS011;22559;54.176;12.102;2023-02-17T07:53:30;29.93;;;17.17;;
36551;SDS011;22559;54.176;12.102;2023-02-17T07:55:56;33.03;;;18.20;;
36551;SDS011;22559;54.176;12.102;2023-02-17T07:58:21;35.17;;;24.23;;
36551;SDS011;22559;54.176;12.102;2023-02-17T08:00:47;30.73;;;17.70;;
36551;SDS011;22559;54.176;12.102;2023-02-17T08:03:12;25.80;;;16.23;;
36551;SDS011;22559;54.176;12.102;2023-02-17T08:05:39;28.10;;;16.20;;
36551;SDS011;22559;54.176;12.102;2023-02-17T08:08:07;27.77;;;16.20;;
36551;SDS011;22559;54.176;12.102;2023-02-17T08:10:52;27.27;;;15.27;;
36551;SDS011;22559;54.176;12.102;2023-02-17T08:13:36;26.20;;;15.93;;
36551;SDS011;22559;54.176;12.102;2023-02-17T08:16:02;26.93;;;15.00;;
36551;SDS011;22559;54.176;12.102;2023-02-17T08:18:27;22.40;;;14.13;;
36551;SDS011;22559;54.176;12.102;2023-02-17T08:20:53;23.80;;;15.50;;
36551;SDS011;22559;54.176;12.102;2023-02-17T08:23:19;25.43;;;14.83;;
36551;SDS011;22559;54.176;12.102;2023-02-17T08:25:45;24.40;;;14.60;;
36551;SDS011;22559;54.176;12.102;2023-02-17T08:28:10;22.30;;;13.67;;
36551;SDS011;22559;54.176;12.102;2023-02-17T08:30:36;21.40;;;12.73;;
36551;SDS011;22559;54.176;12.102;2023-02-17T08:33:03;23.30;;;12.83;;
36551;SDS011;22559;54.176;12.102;2023-02-17T08:35:29;22.47;;;13.07;;
36551;SDS011;22559;54.176;12.102;2023-02-17T08:37:55;22.03;;;13.33;;
36551;SDS011;22559;54.176;12.102;2023-02-17T08:40:21;18.83;;;11.50;;
36551;SDS011;22559;54.176;12.102;2023-02-17T08:42:47;22.00;;;13.37;;
36551;SDS011;22559;54.176;12.102;2023-02-17T08:45:13;20.00;;;12.47;;
36551;SDS011;22559;54.176;12.102;2023-02-17T08:47:39;19.57;;;11.40;;
36551;SDS011;22559;54.176;12.102;2023-02-17T08:50:08;21.33;;;12.73;;
36551;SDS011;22559;54.176;12.102;2023-02-17T08:52:35;20.40;;;12.23;;
36551;SDS011;22559;54.176;12.102;2023-02-17T08:55:01;21.80;;;12.80;;
36551;SDS011;22559;54.176;12.102;2023-02-17T08:57:27;23.30;;;13.77;;
36551;SDS011;22559;54.176;12.102;2023-02-17T08:59:53;18.67;;;11.00;;
36551;SDS011;22559;54.176;12.102;2023-02-17T09:02:18;17.37;;;10.27;;
36551;SDS011;22559;54.176;12.102;2023-02-17T09:04:45;18.40;;;10.87;;
36551;SDS011;22559;54.176;12.102;2023-02-17T09:07:11;18.77;;;10.90;;
36551;SDS011;22559;54.176;12.102;2023-02-17T09:09:38;18.00;;;10.67;;
36551;SDS011;22559;54.176;12.102;2023-02-17T09:12:04;16.50;;;10.60;;
36551;SDS011;22559;54.176;12.102;2023-02-17T09:14:30;22.27;;;11.73;;
36551;SDS011;22559;54.176;12.102;2023-02-17T09:16:56;17.87;;;9.90;;
36551;SDS011;22559;54.176;12.102;2023-02-17T09:21:47;17.17;;;10.30;;
36551;SDS011;22559;54.176;12.102;2023-02-17T09:24:13;15.10;;;8.80;;
36551;SDS011;22559;54.176;12.102;2023-02-17T09:26:39;14.03;;;8.77;;
36551;SDS011;22559;54.176;12.102;2023-02-17T09:29:05;16.27;;;9.80;;
36551;SDS011;22559;54.176;12.102;2023-02-17T09:31:32;12.67;;;8.00;;
36551;SDS011;22559;54.176;12.102;2023-02-17T09:33:58;15.37;;;8.20;;
36551;SDS011;22559;54.176;12.102;2023-02-17T09:36:25;12.10;;;8.43;;
36551;SDS011;22559;54.176;12.102;2023-02-17T09:38:53;13.13;;;7.93;;
36551;SDS011;22559;54.176;12.102;2023-02-17T09:44:00;11.93;;;7.43;;
36551;SDS011;22559;54.176;12.102;2023-02-17T09:46:28;11.53;;;7.47;;
36551;SDS011;22559;54.176;12.102;2023-02-17T09:48:58;12.70;;;8.10;;
36551;SDS011;22559;54.176;12.102;2023-02-17T09:51:34;10.90;;;7.20;;
36551;SDS011;22559;54.176;12.102;2023-02-17T09:54:09;12.27;;;7.57;;
36551;SDS011;22559;54.176;12.102;2023-02-17T09:56:44;13.07;;;8.13;;
36551;SDS011;22559;54.176;12.102;2023-02-17T09:59:20;13.77;;;8.10;;
36551;SDS011;22559;54.176;12.102;2023-02-17T10:01:54;13.83;;;7.80;;
36551;SDS011;22559;54.176;12.102;2023-02-17T10:04:28;13.27;;;8.57;;
36551;SDS011;22559;54.176;12.102;2023-02-17T10:07:07;13.53;;;8.37;;
36551;SDS011;22559;54.176;12.102;2023-02-17T10:09:47;11.93;;;8.03;;
36551;SDS011;22559;54.176;12.102;2023-02-17T10:12:26;14.83;;;9.00;;
36551;SDS011;22559;54.176;12.102;2023-02-17T10:17:34;14.20;;;8.20;;
36551;SDS011;22559;54.176;12.102;2023-02-17T10:20:09;15.20;;;8.90;;
36551;SDS011;22559;54.176;12.102;2023-02-17T10:22:35;15.20;;;8.40;;
36551;SDS011;22559;54.176;12.102;2023-02-17T10:25:03;15.27;;;9.23;;
36551;SDS011;22559;54.176;12.102;2023-02-17T10:27:42;12.07;;;7.87;;
36551;SDS011;22559;54.176;12.102;2023-02-17T10:30:29;16.90;;;8.53;;
36551;SDS011;22559;54.176;12.102;2023-02-17T10:35:58;16.40;;;8.43;;
36551;SDS011;22559;54.176;12.102;2023-02-17T10:38:50;15.37;;;8.83;;
36551;SDS011;22559;54.176;12.102;2023-02-17T10:41:35;13.87;;;8.43;;
36551;SDS011;22559;54.176;12.102;2023-02-17T10:44:04;15.57;;;8.30;;
36551;SDS011;22559;54.176;12.102;2023-02-17T10:46:33;14.53;;;8.70;;
36551;SDS011;22559;54.176;12.102;2023-02-17T10:48:59;14.23;;;8.40;;
36551;SDS011;22559;54.176;12.102;2023-02-17T10:51:26;12.97;;;7.60;;
36551;SDS011;22559;54.176;12.102;2023-02-17T10:53:55;11.30;;;7.43;;
36551;SDS011;22559;54.176;12.102;2023-02-17T10:56:34;13.37;;;7.77;;
36551;SDS011;22559;54.176;12.102;2023-02-17T11:04:49;14.17;;;8.00;;
36551;SDS011;22559;54.176;12.102;2023-02-17T11:07:21;13.53;;;8.07;;
36551;SDS011;22559;54.176;12.102;2023-02-17T11:09:56;13.37;;;7.53;;
36551;SDS011;22559;54.176;12.102;2023-02-17T11:12:27;13.50;;;8.00;;
36551;SDS011;22559;54.176;12.102;2023-02-17T11:15:02;13.07;;;8.50;;
36551;SDS011;22559;54.176;12.102;2023-02-17T11:17:38;10.53;;;6.87;;
36551;SDS011;22559;54.176;12.102;2023-02-17T11:22:41;11.53;;;7.53;;
36551;SDS011;22559;54.176;12.102;2023-02-17T11:25:23;12.37;;;6.43;;
36551;SDS011;22559;54.176;12.102;2023-02-17T11:27:51;10.23;;;6.57;;
36551;SDS011;22559;54.176;12.102;2023-02-17T11:30:22;11.37;;;5.97;;
36551;SDS011;22559;54.176;12.102;2023-02-17T11:32:49;7.50;;;5.23;;
36551;SDS011;22559;54.176;12.102;2023-02-17T11:35:58;20.50;;;10.47;;
36551;SDS011;22559;54.176;12.102;2023-02-17T11:38:15;10.37;;;6.27;;
36551;SDS011;22559;54.176;12.102;2023-02-17T11:40:50;20.10;;;11.23;;
36551;SDS011;22559;54.176;12.102;2023-02-17T11:43:21;10.17;;;5.40;;
36551;SDS011;22559;54.176;12.102;2023-02-17T11:48:49;7.63;;;6.83;;
36551;SDS011;22559;54.176;12.102;2023-02-17T11:51:21;7.30;;;4.93;;
36551;SDS011;22559;54.176;12.102;2023-02-17T11:56:43;6.17;;;4.23;;
36551;SDS011;22559;54.176;12.102;2023-02-17T11:59:30;5.50;;;3.80;;
36551;SDS011;22559;54.176;12.102;2023-02-17T12:02:05;12.97;;;7.70;;
36551;SDS011;22559;54.176;12.102;2023-02-17T12:04:51;5.40;;;3.93;;
36551;SDS011;22559;54.176;12.102;2023-02-17T12:12:50;6.97;;;4.70;;
36551;SDS011;22559;54.176;12.102;2023-02-17T12:15:48;6.93;;;4.37;;
36551;SDS011;22559;54.176;12.102;2023-02-17T12:18:32;8.27;;;5.10;;
36551;SDS011;22559;54.176;12.102;2023-02-17T12:21:17;7.03;;;4.87;;
36551;SDS011;22559;54.176;12.102;2023-02-17T12:29:05;9.00;;;5.87;;
36551;SDS011;22559;54.176;12.102;2023-02-17T12:31:50;8.43;;;4.83;;
36551;SDS011;22559;54.176;12.102;2023-02-17T12:34:24;5.93;;;4.40;;
36551;SDS011;22559;54.176;12.102;2023-02-17T12:36:56;6.43;;;4.77;;
36551;SDS011;22559;54.176;12.102;2023-02-17T12:44:48;6.23;;;4.33;;
36551;SDS011;22559;54.176;12.102;2023-02-17T12:50:14;5.13;;;3.73;;
36551;SDS011;22559;54.176;12.102;2023-02-17T12:52:45;4.87;;;3.53;;
36551;SDS011;22559;54.176;12.102;2023-02-17T12:55:19;6.40;;;3.70;;
36551;SDS011;22559;54.176;12.102;2023-02-17T13:00:23;3.87;;;3.27;;
36551;SDS011;22559;54.176;12.102;2023-02-17T13:03:00;4.37;;;3.30;;
36551;SDS011;22559;54.176;12.102;2023-02-17T13:05:45;3.70;;;3.13;;
36551;SDS011;22559;54.176;12.102;2023-02-17T13:08:28;4.60;;;3.20;;
36551;SDS011;22559;54.176;12.102;2023-02-17T13:11:05;3.83;;;3.10;;
36551;SDS011;22559;54.176;12.102;2023-02-17T13:13:34;5.50;;;3.03;;
36551;SDS011;22559;54.176;12.102;2023-02-17T13:16:07;4.30;;;3.90;;
36551;SDS011;22559;54.176;12.102;2023-02-17T13:18:40;4.63;;;3.43;;
36551;SDS011;22559;54.176;12.102;2023-02-17T13:24:03;5.40;;;3.17;;
36551;SDS011;22559;54.176;12.102;2023-02-17T13:26:37;4.17;;;3.20;;
36551;SDS011;22559;54.176;12.102;2023-02-17T13:31:53;3.97;;;3.50;;
36551;SDS011;22559;54.176;12.102;2023-02-17T13:36:52;4.97;;;3.73;;
36551;SDS011;22559;54.176;12.102;2023-02-17T13:41:57;6.93;;;3.57;;
36551;SDS011;22559;54.176;12.102;2023-02-17T13:44:25;6.07;;;3.50;;
36551;SDS011;22559;54.176;12.102;2023-02-17T13:46:57;3.43;;;3.00;;
36551;SDS011;22559;54.176;12.102;2023-02-17T13:49:30;4.10;;;3.17;;
36551;SDS011;22559;54.176;12.102;2023-02-17T13:52:15;4.60;;;3.27;;
36551;SDS011;22559;54.176;12.102;2023-02-17T13:54:56;3.33;;;3.03;;
36551;SDS011;22559;54.176;12.102;2023-02-17T13:57:28;6.40;;;3.03;;
36551;SDS011;22559;54.176;12.102;2023-02-17T14:02:36;8.83;;;3.57;;
36551;SDS011;22559;54.176;12.102;2023-02-17T14:05:15;8.77;;;3.50;;
36551;SDS011;22559;54.176;12.102;2023-02-17T14:07:44;6.27;;;3.37;;
36551;SDS011;22559;54.176;12.102;2023-02-17T14:10:21;4.70;;;3.43;;
36551;SDS011;22559;54.176;12.102;2023-02-17T14:12:48;6.70;;;3.30;;
36551;SDS011;22559;54.176;12.102;2023-02-17T14:15:16;4.10;;;3.43;;
36551;SDS011;22559;54.176;12.102;2023-02-17T14:17:43;5.87;;;2.93;;
36551;SDS011;22559;54.176;12.102;2023-02-17T14:20:26;6.23;;;3.83;;
36551;SDS011;22559;54.176;12.102;2023-02-17T14:23:09;7.97;;;4.27;;
36551;SDS011;22559;54.176;12.102;2023-02-17T14:25:38;3.70;;;3.07;;
36551;SDS011;22559;54.176;12.102;2023-02-17T14:28:26;4.77;;;2.80;;
36551;SDS011;22559;54.176;12.102;2023-02-17T14:30:52;7.27;;;2.90;;
36551;SDS011;22559;54.176;12.102;2023-02-17T14:40:56;10.90;;;3.17;;
36551;SDS011;22559;54.176;12.102;2023-02-17T14:43:22;9.73;;;3.53;;
36551;SDS011;22559;54.176;12.102;2023-02-17T14:45:49;5.80;;;3.03;;
36551;SDS011;22559;54.176;12.102;2023-02-17T14:48:15;9.00;;;3.33;;
36551;SDS011;22559;54.176;12.102;2023-02-17T14:50:41;4.90;;;2.60;;
36551;SDS011;22559;54.176;12.102;2023-02-17T14:53:12;11.77;;;3.80;;
36551;SDS011;22559;54.176;12.102;2023-02-17T14:55:47;6.07;;;3.43;;
36551;SDS011;22559;54.176;12.102;2023-02-17T14:58:21;11.47;;;2.90;;
36551;SDS011;22559;54.176;12.102;2023-02-17T15:00:48;9.57;;;3.23;;
36551;SDS011;22559;54.176;12.102;2023-02-17T15:03:14;5.33;;;2.50;;
36551;SDS011;22559;54.176;12.102;2023-02-17T15:05:40;9.60;;;3.20;;
36551;SDS011;22559;54.176;12.102;2023-02-17T15:08:13;11.57;;;3.07;;
36551;SDS011;22559;54.176;12.102;2023-02-17T15:10:42;10.27;;;2.50;;
36551;SDS011;22559;54.176;12.102;2023-02-17T15:13:18;12.13;;;3.10;;
36551;SDS011;22559;54.176;12.102;2023-02-17T15:15:45;8.23;;;2.70;;
36551;SDS011;22559;54.176;12.102;2023-02-17T15:18:14;8.43;;;2.67;;
36551;SDS011;22559;54.176;12.102;2023-02-17T15:20:42;7.47;;;2.90;;
36551;SDS011;22559;54.176;12.102;2023-02-17T15:23:12;10.30;;;3.23;;
36551;SDS011;22559;54.176;12.102;2023-02-17T15:25:43;12.37;;;2.90;;
36551;SDS011;22559;54.176;12.102;2023-02-17T15:28:16;9.90;;;2.90;;
36551;SDS011;22559;54.176;12.102;2023-02-17T15:30:44;9.97;;;3.03;;
36551;SDS011;22559;54.176;12.102;2023-02-17T15:33:18;13.10;;;3.43;;
36551;SDS011;22559;54.176;12.102;2023-02-17T15:35:45;13.90;;;4.33;;
36551;SDS011;22559;54.176;12.102;2023-02-17T15:38:14;11.93;;;4.03;;
36551;SDS011;22559;54.176;12.102;2023-02-17T15:40:40;12.93;;;3.57;;
36551;SDS011;22559;54.176;12.102;2023-02-17T15:43:08;14.67;;;4.40;;
36551;SDS011;22559;54.176;12.102;2023-02-17T15:45:38;14.03;;;4.00;;
36551;SDS011;22559;54.176;12.102;2023-02-17T15:48:10;17.67;;;5.03;;
36551;SDS011;22559;54.176;12.102;2023-02-17T15:50:42;14.70;;;4.07;;
36551;SDS011;22559;54.176;12.102;2023-02-17T15:53:08;14.83;;;4.17;;
36551;SDS011;22559;54.176;12.102;2023-02-17T15:55:33;11.60;;;2.93;;
36551;SDS011;22559;54.176;12.102;2023-02-17T15:58:01;10.20;;;3.83;;
36551;SDS011;22559;54.176;12.102;2023-02-17T16:00:33;13.30;;;3.60;;